sensor_id;sensor_type;location;lat;lon;timestamp;temperature;humidity
64796;DHT22;51229;51.980;6.722;2022-12-22T00:01:11;4.50;99.90
64796;DHT22;51229;51.980;6.722;2022-12-22T00:03:59;4.50;99.90
64796;DHT22;51229;51.980;6.722;2022-12-22T00:06:44;4.50;99.90
64796;DHT22;51229;51.980;6.722;2022-12-22T00:09:28;4.50;99.90
64796;DHT22;51229;51.980;6.722;2022-12-22T00:12:14;4.50;99.90
64796;DHT22;51229;51.980;6.722;2022-12-22T00:14:58;4.60;99.90
64796;DHT22;51229;51.980;6.722;2022-12-22T00:17:43;4.60;99.90
64796;DHT22;51229;51.980;6.722;2022-12-22T00:20:27;4.60;99.90
64796;DHT22;51229;51.980;6.722;2022-12-22T00:23:11;4.60;99.90
64796;DHT22;51229;51.980;6.722;2022-12-22T00:25:57;4.50;99.90
64796;DHT22;51229;51.980;6.722;2022-12-22T00:28:42;4.60;99.90
64796;DHT22;51229;51.980;6.722;2022-12-22T00:31:27;4.60;99.90
64796;DHT22;51229;51.980;6.722;2022-12-22T00:34:13;4.60;99.90
64796;DHT22;51229;51.980;6.722;2022-12-22T00:36:57;4.60;99.90
64796;DHT22;51229;51.980;6.722;2022-12-22T00:39:42;4.60;99.90
64796;DHT22;51229;51.980;6.722;2022-12-22T00:42:26;4.60;99.90
64796;DHT22;51229;51.980;6.722;2022-12-22T00:45:11;4.60;99.90
64796;DHT22;51229;51.980;6.722;2022-12-22T00:47:55;4.60;99.90
64796;DHT22;51229;51.980;6.722;2022-12-22T00:50:40;4.60;99.90
64796;DHT22;51229;51.980;6.722;2022-12-22T00:53:23;4.60;99.90
64796;DHT22;51229;51.980;6.722;2022-12-22T00:56:08;4.70;99.90
64796;DHT22;51229;51.980;6.722;2022-12-22T00:58:55;4.60;99.90
64796;DHT22;51229;51.980;6.722;2022-12-22T01:01:40;4.60;99.90
64796;DHT22;51229;51.980;6.722;2022-12-22T01:04:25;4.60;99.90
64796;DHT22;51229;51.980;6.722;2022-12-22T01:07:14;4.60;99.90
64796;DHT22;51229;51.980;6.722;2022-12-22T01:09:59;4.60;99.90
64796;DHT22;51229;51.980;6.722;2022-12-22T01:12:44;4.70;99.90
64796;DHT22;51229;51.980;6.722;2022-12-22T01:15:29;4.70;99.90
64796;DHT22;51229;51.980;6.722;2022-12-22T01:18:14;4.60;99.90
64796;DHT22;51229;51.980;6.722;2022-12-22T01:20:59;4.70;99.90
64796;DHT22;51229;51.980;6.722;2022-12-22T01:23:43;4.70;99.90
64796;DHT22;51229;51.980;6.722;2022-12-22T01:26:27;4.70;99.90
64796;DHT22;51229;51.980;6.722;2022-12-22T01:29:12;4.70;99.90
64796;DHT22;51229;51.980;6.722;2022-12-22T01:31:57;4.80;99.90
64796;DHT22;51229;51.980;6.722;2022-12-22T01:34:41;4.80;99.90
64796;DHT22;51229;51.980;6.722;2022-12-22T01:37:25;4.80;99.90
64796;DHT22;51229;51.980;6.722;2022-12-22T01:40:19;4.70;99.90
64796;DHT22;51229;51.980;6.722;2022-12-22T01:43:33;4.80;99.90
64796;DHT22;51229;51.980;6.722;2022-12-22T01:46:41;4.80;99.90
64796;DHT22;51229;51.980;6.722;2022-12-22T01:49:33;4.80;99.90
64796;DHT22;51229;51.980;6.722;2022-12-22T01:52:19;4.80;99.90
64796;DHT22;51229;51.980;6.722;2022-12-22T01:55:10;4.80;99.90
64796;DHT22;51229;51.980;6.722;2022-12-22T01:57:55;4.80;99.90
64796;DHT22;51229;51.980;6.722;2022-12-22T02:00:40;4.80;99.90
64796;DHT22;51229;51.980;6.722;2022-12-22T02:03:25;4.80;99.90
64796;DHT22;51229;51.980;6.722;2022-12-22T02:12:10;4.80;99.90
64796;DHT22;51229;51.980;6.722;2022-12-22T02:15:11;4.80;99.90
64796;DHT22;51229;51.980;6.722;2022-12-22T02:20:59;4.80;99.90
64796;DHT22;51229;51.980;6.722;2022-12-22T02:26:43;4.70;99.90
64796;DHT22;51229;51.980;6.722;2022-12-22T02:29:35;4.80;99.90
64796;DHT22;51229;51.980;6.722;2022-12-22T02:32:22;4.80;99.90
64796;DHT22;51229;51.980;6.722;2022-12-22T02:35:11;4.80;99.90
64796;DHT22;51229;51.980;6.722;2022-12-22T02:44:21;4.90;99.90
64796;DHT22;51229;51.980;6.722;2022-12-22T02:47:29;4.80;99.90
64796;DHT22;51229;51.980;6.722;2022-12-22T02:50:33;4.80;99.90
64796;DHT22;51229;51.980;6.722;2022-12-22T02:53:18;4.90;99.90
64796;DHT22;51229;51.980;6.722;2022-12-22T02:56:06;4.90;99.90
64796;DHT22;51229;51.980;6.722;2022-12-22T02:58:51;4.90;99.90
64796;DHT22;51229;51.980;6.722;2022-12-22T03:01:37;4.80;99.90
64796;DHT22;51229;51.980;6.722;2022-12-22T03:04:22;4.80;99.90
64796;DHT22;51229;51.980;6.722;2022-12-22T03:07:06;4.80;99.90
64796;DHT22;51229;51.980;6.722;2022-12-22T03:09:50;4.80;99.90
64796;DHT22;51229;51.980;6.722;2022-12-22T03:12:35;4.90;99.90
64796;DHT22;51229;51.980;6.722;2022-12-22T03:15:19;4.80;99.90
64796;DHT22;51229;51.980;6.722;2022-12-22T03:18:06;4.90;99.90
64796;DHT22;51229;51.980;6.722;2022-12-22T03:20:51;4.90;99.90
64796;DHT22;51229;51.980;6.722;2022-12-22T03:23:36;4.90;99.90
64796;DHT22;51229;51.980;6.722;2022-12-22T03:26:21;4.90;99.90
64796;DHT22;51229;51.980;6.722;2022-12-22T03:28:46;4.90;99.90
64796;DHT22;51229;51.980;6.722;2022-12-22T03:31:12;4.90;99.90
64796;DHT22;51229;51.980;6.722;2022-12-22T03:33:38;4.90;99.90
64796;DHT22;51229;51.980;6.722;2022-12-22T03:36:05;4.90;99.90
64796;DHT22;51229;51.980;6.722;2022-12-22T03:38:31;4.90;99.90
64796;DHT22;51229;51.980;6.722;2022-12-22T03:40:57;4.90;99.90
64796;DHT22;51229;51.980;6.722;2022-12-22T03:43:23;5.00;99.90
64796;DHT22;51229;51.980;6.722;2022-12-22T03:46:15;5.00;99.90
64796;DHT22;51229;51.980;6.722;2022-12-22T03:48:59;5.00;99.90
64796;DHT22;51229;51.980;6.722;2022-12-22T03:51:40;4.90;99.90
64796;DHT22;51229;51.980;6.722;2022-12-22T03:54:06;5.00;99.90
64796;DHT22;51229;51.980;6.722;2022-12-22T03:56:33;5.00;99.90
64796;DHT22;51229;51.980;6.722;2022-12-22T03:58:58;4.90;99.90
64796;DHT22;51229;51.980;6.722;2022-12-22T04:01:24;5.00;99.90
64796;DHT22;51229;51.980;6.722;2022-12-22T04:03:50;5.00;99.90
64796;DHT22;51229;51.980;6.722;2022-12-22T04:06:16;5.00;99.90
64796;DHT22;51229;51.980;6.722;2022-12-22T04:08:42;4.90;99.90
64796;DHT22;51229;51.980;6.722;2022-12-22T04:11:12;4.90;99.90
64796;DHT22;51229;51.980;6.722;2022-12-22T04:13:56;4.90;99.90
64796;DHT22;51229;51.980;6.722;2022-12-22T04:16:22;4.90;99.90
64796;DHT22;51229;51.980;6.722;2022-12-22T04:18:48;4.90;99.90
64796;DHT22;51229;51.980;6.722;2022-12-22T04:21:14;4.90;99.90
64796;DHT22;51229;51.980;6.722;2022-12-22T04:23:40;4.90;99.90
64796;DHT22;51229;51.980;6.722;2022-12-22T04:26:05;4.90;99.90
64796;DHT22;51229;51.980;6.722;2022-12-22T04:28:31;4.90;99.90
64796;DHT22;51229;51.980;6.722;2022-12-22T04:30:57;4.90;99.90
64796;DHT22;51229;51.980;6.722;2022-12-22T04:33:23;4.90;99.90
64796;DHT22;51229;51.980;6.722;2022-12-22T04:35:49;4.90;99.90
64796;DHT22;51229;51.980;6.722;2022-12-22T04:38:14;4.80;99.90
64796;DHT22;51229;51.980;6.722;2022-12-22T04:40:40;4.80;99.90
64796;DHT22;51229;51.980;6.722;2022-12-22T04:43:06;4.90;99.90
64796;DHT22;51229;51.980;6.722;2022-12-22T04:45:31;4.90;99.90
64796;DHT22;51229;51.980;6.722;2022-12-22T04:47:57;4.90;99.90
64796;DHT22;51229;51.980;6.722;2022-12-22T04:50:23;4.90;99.90
64796;DHT22;51229;51.980;6.722;2022-12-22T04:52:49;4.90;99.90
64796;DHT22;51229;51.980;6.722;2022-12-22T04:55:14;4.90;99.90
64796;DHT22;51229;51.980;6.722;2022-12-22T04:57:40;4.80;99.90
64796;DHT22;51229;51.980;6.722;2022-12-22T05:00:06;4.80;99.90
64796;DHT22;51229;51.980;6.722;2022-12-22T05:02:32;4.80;99.90
64796;DHT22;51229;51.980;6.722;2022-12-22T05:04:58;4.80;99.90
64796;DHT22;51229;51.980;6.722;2022-12-22T05:07:24;4.80;99.90
64796;DHT22;51229;51.980;6.722;2022-12-22T05:09:49;4.80;99.90
64796;DHT22;51229;51.980;6.722;2022-12-22T05:12:15;4.80;99.90
64796;DHT22;51229;51.980;6.722;2022-12-22T05:14:59;4.80;99.90
64796;DHT22;51229;51.980;6.722;2022-12-22T05:17:25;4.80;99.90
64796;DHT22;51229;51.980;6.722;2022-12-22T05:19:51;4.80;99.90
64796;DHT22;51229;51.980;6.722;2022-12-22T05:22:16;4.80;99.90
64796;DHT22;51229;51.980;6.722;2022-12-22T05:24:42;4.70;99.90
64796;DHT22;51229;51.980;6.722;2022-12-22T05:27:09;4.80;99.90
64796;DHT22;51229;51.980;6.722;2022-12-22T05:29:35;4.80;99.90
64796;DHT22;51229;51.980;6.722;2022-12-22T05:32:05;4.80;99.90
64796;DHT22;51229;51.980;6.722;2022-12-22T05:34:30;4.80;99.90
64796;DHT22;51229;51.980;6.722;2022-12-22T05:36:56;4.80;99.90
64796;DHT22;51229;51.980;6.722;2022-12-22T05:39:25;4.80;99.90
64796;DHT22;51229;51.980;6.722;2022-12-22T05:41:51;4.80;99.90
64796;DHT22;51229;51.980;6.722;2022-12-22T05:44:17;4.80;99.90
64796;DHT22;51229;51.980;6.722;2022-12-22T05:46:42;4.80;99.90
64796;DHT22;51229;51.980;6.722;2022-12-22T05:49:08;4.80;99.90
64796;DHT22;51229;51.980;6.722;2022-12-22T05:51:33;4.80;99.90
64796;DHT22;51229;51.980;6.722;2022-12-22T05:53:59;4.80;99.90
64796;DHT22;51229;51.980;6.722;2022-12-22T05:56:25;4.70;99.90
64796;DHT22;51229;51.980;6.722;2022-12-22T05:58:50;4.80;99.90
64796;DHT22;51229;51.980;6.722;2022-12-22T06:01:16;4.80;99.90
64796;DHT22;51229;51.980;6.722;2022-12-22T06:03:42;4.80;99.90
64796;DHT22;51229;51.980;6.722;2022-12-22T06:06:07;4.80;99.90
64796;DHT22;51229;51.980;6.722;2022-12-22T06:08:33;4.80;99.90
64796;DHT22;51229;51.980;6.722;2022-12-22T06:10:58;4.80;99.90
64796;DHT22;51229;51.980;6.722;2022-12-22T06:13:25;4.80;99.90
64796;DHT22;51229;51.980;6.722;2022-12-22T06:15:50;4.70;99.90
64796;DHT22;51229;51.980;6.722;2022-12-22T06:18:16;4.70;99.90
64796;DHT22;51229;51.980;6.722;2022-12-22T06:20:44;4.70;99.90
64796;DHT22;51229;51.980;6.722;2022-12-22T06:23:10;4.70;99.90
64796;DHT22;51229;51.980;6.722;2022-12-22T06:25:36;4.80;99.90
64796;DHT22;51229;51.980;6.722;2022-12-22T06:28:01;4.80;99.90
64796;DHT22;51229;51.980;6.722;2022-12-22T06:30:27;4.80;99.90
64796;DHT22;51229;51.980;6.722;2022-12-22T06:32:53;4.80;99.90
64796;DHT22;51229;51.980;6.722;2022-12-22T06:35:18;4.80;99.90
64796;DHT22;51229;51.980;6.722;2022-12-22T06:37:44;4.70;99.90
64796;DHT22;51229;51.980;6.722;2022-12-22T06:40:10;4.70;99.90
64796;DHT22;51229;51.980;6.722;2022-12-22T06:42:36;4.80;99.90
64796;DHT22;51229;51.980;6.722;2022-12-22T06:45:20;4.80;99.90
64796;DHT22;51229;51.980;6.722;2022-12-22T06:47:46;4.80;99.90
64796;DHT22;51229;51.980;6.722;2022-12-22T06:50:11;4.80;99.90
64796;DHT22;51229;51.980;6.722;2022-12-22T06:52:37;4.80;99.90
64796;DHT22;51229;51.980;6.722;2022-12-22T06:55:04;4.80;99.90
64796;DHT22;51229;51.980;6.722;2022-12-22T06:57:30;4.80;99.90
64796;DHT22;51229;51.980;6.722;2022-12-22T06:59:55;4.80;99.90
64796;DHT22;51229;51.980;6.722;2022-12-22T07:02:21;4.80;99.90
64796;DHT22;51229;51.980;6.722;2022-12-22T07:04:46;4.80;99.90
64796;DHT22;51229;51.980;6.722;2022-12-22T07:07:12;4.70;99.90
64796;DHT22;51229;51.980;6.722;2022-12-22T07:09:38;4.70;99.90
64796;DHT22;51229;51.980;6.722;2022-12-22T07:12:03;4.80;99.90
64796;DHT22;51229;51.980;6.722;2022-12-22T07:14:29;4.70;99.90
64796;DHT22;51229;51.980;6.722;2022-12-22T07:16:55;4.70;99.90
64796;DHT22;51229;51.980;6.722;2022-12-22T07:19:20;4.70;99.90
64796;DHT22;51229;51.980;6.722;2022-12-22T07:21:46;4.70;99.90
64796;DHT22;51229;51.980;6.722;2022-12-22T07:24:13;4.60;99.90
64796;DHT22;51229;51.980;6.722;2022-12-22T07:26:40;4.60;99.90
64796;DHT22;51229;51.980;6.722;2022-12-22T07:29:06;4.60;99.90
64796;DHT22;51229;51.980;6.722;2022-12-22T07:31:32;4.60;99.90
64796;DHT22;51229;51.980;6.722;2022-12-22T07:33:57;4.60;99.90
64796;DHT22;51229;51.980;6.722;2022-12-22T07:36:23;4.60;99.90
64796;DHT22;51229;51.980;6.722;2022-12-22T07:38:50;4.60;99.90
64796;DHT22;51229;51.980;6.722;2022-12-22T07:41:17;4.60;99.90
64796;DHT22;51229;51.980;6.722;2022-12-22T07:44:05;4.70;99.90
64796;DHT22;51229;51.980;6.722;2022-12-22T07:46:34;4.60;99.90
64796;DHT22;51229;51.980;6.722;2022-12-22T07:49:00;4.60;99.90
64796;DHT22;51229;51.980;6.722;2022-12-22T07:51:44;4.70;99.90
64796;DHT22;51229;51.980;6.722;2022-12-22T07:54:12;4.70;99.90
64796;DHT22;51229;51.980;6.722;2022-12-22T07:56:38;4.70;99.90
64796;DHT22;51229;51.980;6.722;2022-12-22T07:59:04;4.80;99.90
64796;DHT22;51229;51.980;6.722;2022-12-22T08:01:29;4.90;99.90
64796;DHT22;51229;51.980;6.722;2022-12-22T08:03:55;4.90;99.90
64796;DHT22;51229;51.980;6.722;2022-12-22T08:06:22;4.80;99.90
64796;DHT22;51229;51.980;6.722;2022-12-22T08:08:48;4.90;99.90
64796;DHT22;51229;51.980;6.722;2022-12-22T08:11:14;4.90;99.90
64796;DHT22;51229;51.980;6.722;2022-12-22T08:13:40;4.80;99.90
64796;DHT22;51229;51.980;6.722;2022-12-22T08:16:09;4.70;99.90
64796;DHT22;51229;51.980;6.722;2022-12-22T08:18:36;4.70;99.90
64796;DHT22;51229;51.980;6.722;2022-12-22T08:21:03;4.70;99.90
64796;DHT22;51229;51.980;6.722;2022-12-22T08:23:29;4.80;99.90
64796;DHT22;51229;51.980;6.722;2022-12-22T08:26:02;4.80;99.90
64796;DHT22;51229;51.980;6.722;2022-12-22T08:28:32;4.80;99.90
64796;DHT22;51229;51.980;6.722;2022-12-22T08:30:59;4.70;99.90
64796;DHT22;51229;51.980;6.722;2022-12-22T08:33:26;4.70;99.90
64796;DHT22;51229;51.980;6.722;2022-12-22T08:35:53;4.70;99.90
64796;DHT22;51229;51.980;6.722;2022-12-22T08:38:19;4.70;99.90
64796;DHT22;51229;51.980;6.722;2022-12-22T08:40:46;4.80;99.90
64796;DHT22;51229;51.980;6.722;2022-12-22T08:43:12;4.80;99.90
64796;DHT22;51229;51.980;6.722;2022-12-22T08:45:40;4.80;99.90
64796;DHT22;51229;51.980;6.722;2022-12-22T08:48:07;4.80;99.90
64796;DHT22;51229;51.980;6.722;2022-12-22T08:50:33;4.80;99.90
64796;DHT22;51229;51.980;6.722;2022-12-22T08:53:05;4.80;99.90
64796;DHT22;51229;51.980;6.722;2022-12-22T08:55:31;4.80;99.90
64796;DHT22;51229;51.980;6.722;2022-12-22T08:57:57;4.80;99.90
64796;DHT22;51229;51.980;6.722;2022-12-22T09:00:23;4.80;99.90
64796;DHT22;51229;51.980;6.722;2022-12-22T09:02:48;4.80;99.90
64796;DHT22;51229;51.980;6.722;2022-12-22T09:05:14;4.80;99.90
64796;DHT22;51229;51.980;6.722;2022-12-22T09:07:40;4.80;99.90
64796;DHT22;51229;51.980;6.722;2022-12-22T09:10:07;4.90;99.90
64796;DHT22;51229;51.980;6.722;2022-12-22T09:12:33;4.90;99.90
64796;DHT22;51229;51.980;6.722;2022-12-22T09:14:59;4.90;99.90
64796;DHT22;51229;51.980;6.722;2022-12-22T09:17:25;4.90;99.90
64796;DHT22;51229;51.980;6.722;2022-12-22T09:19:50;4.90;99.90
64796;DHT22;51229;51.980;6.722;2022-12-22T09:22:16;4.90;99.90
64796;DHT22;51229;51.980;6.722;2022-12-22T09:24:42;5.00;99.90
64796;DHT22;51229;51.980;6.722;2022-12-22T09:27:08;5.00;99.90
64796;DHT22;51229;51.980;6.722;2022-12-22T09:29:35;5.10;99.90
64796;DHT22;51229;51.980;6.722;2022-12-22T09:32:02;5.00;99.90
64796;DHT22;51229;51.980;6.722;2022-12-22T09:34:28;5.10;99.90
64796;DHT22;51229;51.980;6.722;2022-12-22T09:36:54;5.20;99.90
64796;DHT22;51229;51.980;6.722;2022-12-22T09:39:19;5.10;99.90
64796;DHT22;51229;51.980;6.722;2022-12-22T09:41:48;5.10;99.90
64796;DHT22;51229;51.980;6.722;2022-12-22T09:44:19;5.20;99.90
64796;DHT22;51229;51.980;6.722;2022-12-22T09:46:47;5.10;99.90
64796;DHT22;51229;51.980;6.722;2022-12-22T09:49:16;5.10;99.90
64796;DHT22;51229;51.980;6.722;2022-12-22T09:51:46;5.10;99.90
64796;DHT22;51229;51.980;6.722;2022-12-22T09:54:13;5.30;99.90
64796;DHT22;51229;51.980;6.722;2022-12-22T09:56:39;5.30;99.90
64796;DHT22;51229;51.980;6.722;2022-12-22T09:59:16;5.50;99.90
64796;DHT22;51229;51.980;6.722;2022-12-22T10:07:38;6.40;99.90
64796;DHT22;51229;51.980;6.722;2022-12-22T10:10:26;7.10;99.90
64796;DHT22;51229;51.980;6.722;2022-12-22T10:13:00;7.50;99.90
64796;DHT22;51229;51.980;6.722;2022-12-22T10:15:32;8.00;99.90
64796;DHT22;51229;51.980;6.722;2022-12-22T10:18:15;8.60;99.90
64796;DHT22;51229;51.980;6.722;2022-12-22T10:20:44;9.40;99.90
64796;DHT22;51229;51.980;6.722;2022-12-22T10:23:27;9.30;99.90
64796;DHT22;51229;51.980;6.722;2022-12-22T10:28:26;8.40;99.90
64796;DHT22;51229;51.980;6.722;2022-12-22T10:31:20;7.80;99.90
64796;DHT22;51229;51.980;6.722;2022-12-22T10:33:49;7.70;99.90
64796;DHT22;51229;51.980;6.722;2022-12-22T10:36:24;7.80;99.90
64796;DHT22;51229;51.980;6.722;2022-12-22T10:39:04;7.50;99.90
64796;DHT22;51229;51.980;6.722;2022-12-22T10:41:34;7.00;99.90
64796;DHT22;51229;51.980;6.722;2022-12-22T10:44:06;6.80;99.90
64796;DHT22;51229;51.980;6.722;2022-12-22T10:46:36;6.70;99.90
64796;DHT22;51229;51.980;6.722;2022-12-22T10:49:24;6.80;99.90
64796;DHT22;51229;51.980;6.722;2022-12-22T10:51:56;7.00;99.90
64796;DHT22;51229;51.980;6.722;2022-12-22T10:54:25;7.40;99.90
64796;DHT22;51229;51.980;6.722;2022-12-22T10:56:59;7.30;99.90
64796;DHT22;51229;51.980;6.722;2022-12-22T10:59:25;7.40;99.90
64796;DHT22;51229;51.980;6.722;2022-12-22T11:01:51;7.70;99.90
64796;DHT22;51229;51.980;6.722;2022-12-22T11:04:24;8.70;99.90
64796;DHT22;51229;51.980;6.722;2022-12-22T11:06:52;8.80;99.90
64796;DHT22;51229;51.980;6.722;2022-12-22T11:09:19;8.80;99.90
64796;DHT22;51229;51.980;6.722;2022-12-22T11:11:49;8.90;99.90
64796;DHT22;51229;51.980;6.722;2022-12-22T11:20:23;10.10;99.90
64796;DHT22;51229;51.980;6.722;2022-12-22T11:23:17;10.40;99.90
64796;DHT22;51229;51.980;6.722;2022-12-22T11:25:49;10.50;99.90
64796;DHT22;51229;51.980;6.722;2022-12-22T11:39:44;11.20;99.90
64796;DHT22;51229;51.980;6.722;2022-12-22T11:50:31;11.40;99.90
64796;DHT22;51229;51.980;6.722;2022-12-22T12:01:50;12.60;99.90
64796;DHT22;51229;51.980;6.722;2022-12-22T12:07:12;13.50;99.90
64796;DHT22;51229;51.980;6.722;2022-12-22T12:12:37;12.30;99.90
64796;DHT22;51229;51.980;6.722;2022-12-22T12:15:39;13.10;99.90
64796;DHT22;51229;51.980;6.722;2022-12-22T12:21:26;12.10;99.90
64796;DHT22;51229;51.980;6.722;2022-12-22T12:27:21;10.10;99.90
64796;DHT22;51229;51.980;6.722;2022-12-22T12:30:10;10.10;99.90
64796;DHT22;51229;51.980;6.722;2022-12-22T12:35:47;9.80;99.90
64796;DHT22;51229;51.980;6.722;2022-12-22T12:44:16;9.30;99.90
64796;DHT22;51229;51.980;6.722;2022-12-22T12:46:53;8.70;99.90
64796;DHT22;51229;51.980;6.722;2022-12-22T13:08:29;8.70;99.90
64796;DHT22;51229;51.980;6.722;2022-12-22T13:23:33;7.50;99.90
64796;DHT22;51229;51.980;6.722;2022-12-22T13:26:09;7.40;99.90
64796;DHT22;51229;51.980;6.722;2022-12-22T13:28:40;7.60;99.90
64796;DHT22;51229;51.980;6.722;2022-12-22T13:31:17;8.00;99.90
64796;DHT22;51229;51.980;6.722;2022-12-22T13:33:44;7.70;99.90
64796;DHT22;51229;51.980;6.722;2022-12-22T13:36:30;7.60;99.90
64796;DHT22;51229;51.980;6.722;2022-12-22T13:39:14;7.40;99.90
64796;DHT22;51229;51.980;6.722;2022-12-22T13:41:47;7.60;99.90
64796;DHT22;51229;51.980;6.722;2022-12-22T13:44:31;7.70;99.90
64796;DHT22;51229;51.980;6.722;2022-12-22T13:47:05;7.30;99.90
64796;DHT22;51229;51.980;6.722;2022-12-22T13:49:31;7.10;99.90
64796;DHT22;51229;51.980;6.722;2022-12-22T13:51:59;7.20;99.90
64796;DHT22;51229;51.980;6.722;2022-12-22T13:54:32;7.30;99.90
64796;DHT22;51229;51.980;6.722;2022-12-22T13:57:01;7.30;99.90
64796;DHT22;51229;51.980;6.722;2022-12-22T13:59:53;7.30;99.90
64796;DHT22;51229;51.980;6.722;2022-12-22T14:02:20;7.20;99.90
64796;DHT22;51229;51.980;6.722;2022-12-22T14:05:09;7.00;99.90
64796;DHT22;51229;51.980;6.722;2022-12-22T14:07:36;7.10;99.90
64796;DHT22;51229;51.980;6.722;2022-12-22T14:10:01;6.90;99.90
64796;DHT22;51229;51.980;6.722;2022-12-22T14:12:30;6.90;99.90
64796;DHT22;51229;51.980;6.722;2022-12-22T14:14:58;7.20;99.90
64796;DHT22;51229;51.980;6.722;2022-12-22T14:17:30;7.00;99.90
64796;DHT22;51229;51.980;6.722;2022-12-22T14:19:59;6.90;99.90
64796;DHT22;51229;51.980;6.722;2022-12-22T14:22:36;6.70;99.90
64796;DHT22;51229;51.980;6.722;2022-12-22T14:25:13;6.50;99.90
64796;DHT22;51229;51.980;6.722;2022-12-22T14:27:44;6.50;99.90
64796;DHT22;51229;51.980;6.722;2022-12-22T14:30:20;6.70;99.90
64796;DHT22;51229;51.980;6.722;2022-12-22T14:32:52;6.70;99.90
64796;DHT22;51229;51.980;6.722;2022-12-22T14:37:53;6.50;99.90
64796;DHT22;51229;51.980;6.722;2022-12-22T14:40:36;6.60;99.90
64796;DHT22;51229;51.980;6.722;2022-12-22T14:43:04;6.50;99.90
64796;DHT22;51229;51.980;6.722;2022-12-22T14:45:31;6.30;99.90
64796;DHT22;51229;51.980;6.722;2022-12-22T14:47:57;6.10;99.90
64796;DHT22;51229;51.980;6.722;2022-12-22T14:50:25;6.20;99.90
64796;DHT22;51229;51.980;6.722;2022-12-22T14:52:59;6.20;99.90
64796;DHT22;51229;51.980;6.722;2022-12-22T14:55:38;6.20;99.90
64796;DHT22;51229;51.980;6.722;2022-12-22T14:58:14;6.20;99.90
64796;DHT22;51229;51.980;6.722;2022-12-22T15:00:47;6.20;99.90
64796;DHT22;51229;51.980;6.722;2022-12-22T15:03:34;6.00;99.90
64796;DHT22;51229;51.980;6.722;2022-12-22T15:06:23;6.00;99.90
64796;DHT22;51229;51.980;6.722;2022-12-22T15:11:31;6.10;99.90
64796;DHT22;51229;51.980;6.722;2022-12-22T15:13:58;6.10;99.90
64796;DHT22;51229;51.980;6.722;2022-12-22T15:16:25;6.10;99.90
64796;DHT22;51229;51.980;6.722;2022-12-22T15:18:52;6.00;99.90
64796;DHT22;51229;51.980;6.722;2022-12-22T15:21:18;6.00;99.90
64796;DHT22;51229;51.980;6.722;2022-12-22T15:23:44;6.00;99.90
64796;DHT22;51229;51.980;6.722;2022-12-22T15:26:11;6.00;99.90
64796;DHT22;51229;51.980;6.722;2022-12-22T15:28:36;6.00;99.90
64796;DHT22;51229;51.980;6.722;2022-12-22T15:31:04;5.90;99.90
64796;DHT22;51229;51.980;6.722;2022-12-22T15:33:31;5.90;99.90
64796;DHT22;51229;51.980;6.722;2022-12-22T15:35:57;5.70;99.90
64796;DHT22;51229;51.980;6.722;2022-12-22T15:38:24;5.70;99.90
64796;DHT22;51229;51.980;6.722;2022-12-22T15:40:50;5.70;99.90
64796;DHT22;51229;51.980;6.722;2022-12-22T15:43:16;5.70;99.90
64796;DHT22;51229;51.980;6.722;2022-12-22T15:45:43;5.80;99.90
64796;DHT22;51229;51.980;6.722;2022-12-22T15:48:13;5.70;99.90
64796;DHT22;51229;51.980;6.722;2022-12-22T15:50:43;5.60;99.90
64796;DHT22;51229;51.980;6.722;2022-12-22T15:53:17;5.30;99.90
64796;DHT22;51229;51.980;6.722;2022-12-22T15:55:45;5.30;99.90
64796;DHT22;51229;51.980;6.722;2022-12-22T15:58:14;5.20;99.90
64796;DHT22;51229;51.980;6.722;2022-12-22T16:00:41;5.10;99.90
64796;DHT22;51229;51.980;6.722;2022-12-22T16:03:09;5.10;99.90
64796;DHT22;51229;51.980;6.722;2022-12-22T16:05:36;5.00;99.90
64796;DHT22;51229;51.980;6.722;2022-12-22T16:08:02;5.00;99.90
64796;DHT22;51229;51.980;6.722;2022-12-22T16:10:30;5.00;99.90
64796;DHT22;51229;51.980;6.722;2022-12-22T16:13:00;5.00;99.90
64796;DHT22;51229;51.980;6.722;2022-12-22T16:15:31;4.90;99.90
64796;DHT22;51229;51.980;6.722;2022-12-22T16:17:57;5.00;99.90
64796;DHT22;51229;51.980;6.722;2022-12-22T16:20:24;5.00;99.90
64796;DHT22;51229;51.980;6.722;2022-12-22T16:22:50;5.10;99.90
64796;DHT22;51229;51.980;6.722;2022-12-22T16:25:20;5.10;99.90
64796;DHT22;51229;51.980;6.722;2022-12-22T16:27:48;5.00;99.90
64796;DHT22;51229;51.980;6.722;2022-12-22T16:30:21;4.90;99.90
64796;DHT22;51229;51.980;6.722;2022-12-22T16:32:47;4.90;99.90
64796;DHT22;51229;51.980;6.722;2022-12-22T16:35:16;4.90;99.90
64796;DHT22;51229;51.980;6.722;2022-12-22T16:37:42;4.80;99.90
64796;DHT22;51229;51.980;6.722;2022-12-22T16:40:09;4.80;99.90
64796;DHT22;51229;51.980;6.722;2022-12-22T16:42:36;4.80;99.90
64796;DHT22;51229;51.980;6.722;2022-12-22T16:45:03;4.80;99.90
64796;DHT22;51229;51.980;6.722;2022-12-22T16:47:34;4.80;99.90
64796;DHT22;51229;51.980;6.722;2022-12-22T16:50:01;4.70;99.90
64796;DHT22;51229;51.980;6.722;2022-12-22T16:52:36;4.60;99.90
64796;DHT22;51229;51.980;6.722;2022-12-22T16:55:17;4.60;99.90
64796;DHT22;51229;51.980;6.722;2022-12-22T16:57:44;4.60;99.90
64796;DHT22;51229;51.980;6.722;2022-12-22T17:00:15;4.70;99.90
64796;DHT22;51229;51.980;6.722;2022-12-22T17:02:42;4.70;99.90
64796;DHT22;51229;51.980;6.722;2022-12-22T17:07:48;4.70;99.90
64796;DHT22;51229;51.980;6.722;2022-12-22T17:10:14;4.60;99.90
64796;DHT22;51229;51.980;6.722;2022-12-22T17:12:40;4.60;99.90
64796;DHT22;51229;51.980;6.722;2022-12-22T17:15:12;4.60;99.90
64796;DHT22;51229;51.980;6.722;2022-12-22T17:17:41;4.60;99.90
64796;DHT22;51229;51.980;6.722;2022-12-22T17:20:13;4.60;99.90
64796;DHT22;51229;51.980;6.722;2022-12-22T17:22:44;4.60;99.90
64796;DHT22;51229;51.980;6.722;2022-12-22T17:25:18;4.60;99.90
64796;DHT22;51229;51.980;6.722;2022-12-22T17:27:44;4.70;99.90
64796;DHT22;51229;51.980;6.722;2022-12-22T17:30:31;4.60;99.90
64796;DHT22;51229;51.980;6.722;2022-12-22T17:33:02;4.60;99.90
64796;DHT22;51229;51.980;6.722;2022-12-22T17:35:33;4.60;99.90
64796;DHT22;51229;51.980;6.722;2022-12-22T17:38:00;4.60;99.90
64796;DHT22;51229;51.980;6.722;2022-12-22T17:40:27;4.60;99.90
64796;DHT22;51229;51.980;6.722;2022-12-22T17:42:56;4.50;99.90
64796;DHT22;51229;51.980;6.722;2022-12-22T17:45:25;4.40;99.90
64796;DHT22;51229;51.980;6.722;2022-12-22T17:47:51;4.50;99.90
64796;DHT22;51229;51.980;6.722;2022-12-22T17:50:19;4.40;99.90
64796;DHT22;51229;51.980;6.722;2022-12-22T17:52:46;4.50;99.90
64796;DHT22;51229;51.980;6.722;2022-12-22T17:55:26;4.50;99.90
64796;DHT22;51229;51.980;6.722;2022-12-22T17:57:52;4.50;99.90
64796;DHT22;51229;51.980;6.722;2022-12-22T18:00:23;4.50;99.90
64796;DHT22;51229;51.980;6.722;2022-12-22T18:02:50;4.50;99.90
64796;DHT22;51229;51.980;6.722;2022-12-22T18:05:18;4.50;99.90
64796;DHT22;51229;51.980;6.722;2022-12-22T18:07:44;4.50;99.90
64796;DHT22;51229;51.980;6.722;2022-12-22T18:10:36;4.50;99.90
64796;DHT22;51229;51.980;6.722;2022-12-22T18:13:06;4.40;99.90
64796;DHT22;51229;51.980;6.722;2022-12-22T18:15:34;4.40;99.90
64796;DHT22;51229;51.980;6.722;2022-12-22T18:18:00;4.50;99.90
64796;DHT22;51229;51.980;6.722;2022-12-22T18:20:26;4.40;99.90